RYR496E LEZL-GCFV
Flight info
| Callsign | RYR496E |
|---|---|
| Flight time | 2h 7m |
| Altitude | 35000 |
| Route | CLANA N857 KORNO/N0442F370 UN857 TERTO |
| Aircraft | B738/M-SDE3FGILRWY/SB1 |
Departure
| Time | 2026-05-07 15:18 |
|---|---|
| Airport | Seville Airport (LEZL) |
Arrival
| Time | 2026-05-07 17:25 |
|---|---|
| Airport | Fuerteventura Airport (GCFV) |
| Time | Latitude | Longitude | Altitude | Speed | Heading |
|---|---|---|---|---|---|
| 2026-05-07 14:56 | 37.42106 | -5.90194 | 91 ft | 0 kts | 359° |
| 2026-05-07 15:07 | 37.42096 | -5.90194 | 92 ft | 2 kts | 1° |
| 2026-05-07 15:07 | 37.42079 | -5.90195 | 90 ft | 2 kts | 4° |
| 2026-05-07 15:07 | 37.42063 | -5.90197 | 89 ft | 2 kts | 15° |
| 2026-05-07 15:08 | 37.42049 | -5.90207 | 91 ft | 2 kts | 69° |
| 2026-05-07 15:08 | 37.42047 | -5.90221 | 90 ft | 1 kts | 90° |
| 2026-05-07 15:08 | 37.42047 | -5.90222 | 90 ft | 0 kts | 90° |
| 2026-05-07 15:09 | 37.42047 | -5.90219 | 90 ft | 1 kts | 90° |
| 2026-05-07 15:10 | 37.42047 | -5.90194 | 91 ft | 5 kts | 91° |
| 2026-05-07 15:10 | 37.42046 | -5.90141 | 91 ft | 7 kts | 91° |
| 2026-05-07 15:10 | 37.42022 | -5.90097 | 94 ft | 7 kts | 173° |
| 2026-05-07 15:10 | 37.41977 | -5.90084 | 92 ft | 7 kts | 134° |
| 2026-05-07 15:11 | 37.41972 | -5.90025 | 92 ft | 7 kts | 91° |
| 2026-05-07 15:11 | 37.41971 | -5.89966 | 92 ft | 7 kts | 92° |
| 2026-05-07 15:11 | 37.41969 | -5.89908 | 93 ft | 7 kts | 92° |
| 2026-05-07 15:11 | 37.41971 | -5.89852 | 95 ft | 7 kts | 78° |
| 2026-05-07 15:12 | 37.41981 | -5.89775 | 94 ft | 11 kts | 89° |
| 2026-05-07 15:12 | 37.41981 | -5.89651 | 94 ft | 17 kts | 90° |
| 2026-05-07 15:12 | 37.41981 | -5.89483 | 95 ft | 20 kts | 89° |
| 2026-05-07 15:12 | 37.41982 | -5.89313 | 97 ft | 19 kts | 89° |
| 2026-05-07 15:13 | 37.41982 | -5.89148 | 98 ft | 19 kts | 89° |
| 2026-05-07 15:13 | 37.41983 | -5.88989 | 99 ft | 18 kts | 90° |
| 2026-05-07 15:13 | 37.41983 | -5.88835 | 101 ft | 17 kts | 90° |
| 2026-05-07 15:13 | 37.41984 | -5.88687 | 102 ft | 17 kts | 90° |
| 2026-05-07 15:14 | 37.41984 | -5.88544 | 103 ft | 16 kts | 90° |
| 2026-05-07 15:14 | 37.41985 | -5.88407 | 104 ft | 15 kts | 89° |
| 2026-05-07 15:14 | 37.41985 | -5.88275 | 105 ft | 15 kts | 89° |
| 2026-05-07 15:14 | 37.41985 | -5.88148 | 106 ft | 14 kts | 90° |
| 2026-05-07 15:15 | 37.41986 | -5.88028 | 106 ft | 14 kts | 89° |
| 2026-05-07 15:15 | 37.41987 | -5.87912 | 107 ft | 13 kts | 90° |
| 2026-05-07 15:15 | 37.41987 | -5.87800 | 108 ft | 13 kts | 90° |
| 2026-05-07 15:15 | 37.41987 | -5.87691 | 109 ft | 12 kts | 89° |
| 2026-05-07 15:16 | 37.41987 | -5.87585 | 109 ft | 12 kts | 91° |
| 2026-05-07 15:16 | 37.41964 | -5.87486 | 109 ft | 12 kts | 118° |
| 2026-05-07 15:16 | 37.41912 | -5.87430 | 110 ft | 8 kts | 159° |
| 2026-05-07 15:16 | 37.41856 | -5.87435 | 109 ft | 8 kts | 206° |
| 2026-05-07 15:17 | 37.41808 | -5.87473 | 109 ft | 8 kts | 234° |
| 2026-05-07 15:17 | 37.41801 | -5.87542 | 109 ft | 8 kts | 269° |
| 2026-05-07 15:17 | 37.41799 | -5.87738 | 107 ft | 55 kts | 269° |
| 2026-05-07 15:17 | 37.41795 | -5.88570 | 104 ft | 132 kts | 270° |
| 2026-05-07 15:18 | 37.41746 | -5.89936 | 442 ft | 166 kts | 264° |
| 2026-05-07 15:18 | 37.41839 | -5.91354 | 1505 ft | 169 kts | 278° |
| 2026-05-07 15:18 | 37.42119 | -5.92343 | 1980 ft | 185 kts | 288° |
| 2026-05-07 15:18 | 37.42869 | -5.94419 | 2644 ft | 207 kts | 289° |
| 2026-05-07 15:19 | 37.43447 | -5.96133 | 3209 ft | 218 kts | 285° |
| 2026-05-07 15:19 | 37.43845 | -5.98028 | 3670 ft | 237 kts | 274° |
| 2026-05-07 15:19 | 37.44017 | -6.00142 | 4350 ft | 248 kts | 271° |
| 2026-05-07 15:19 | 37.44133 | -6.02327 | 5230 ft | 253 kts | 265° |
| 2026-05-07 15:20 | 37.43649 | -6.04482 | 5915 ft | 261 kts | 238° |
| 2026-05-07 15:20 | 37.42429 | -6.06167 | 6726 ft | 264 kts | 213° |
| 2026-05-07 15:20 | 37.40745 | -6.07086 | 7570 ft | 266 kts | 192° |
| 2026-05-07 15:20 | 37.38886 | -6.07202 | 8428 ft | 269 kts | 178° |
| 2026-05-07 15:21 | 37.36992 | -6.07049 | 9218 ft | 278 kts | 176° |
| 2026-05-07 15:21 | 37.35067 | -6.06867 | 10072 ft | 281 kts | 177° |
| 2026-05-07 15:21 | 37.33065 | -6.06684 | 10512 ft | 300 kts | 177° |
| 2026-05-07 15:21 | 37.30885 | -6.06496 | 10687 ft | 326 kts | 177° |
| 2026-05-07 15:22 | 37.28545 | -6.06302 | 11026 ft | 345 kts | 178° |
| 2026-05-07 15:22 | 37.26120 | -6.06106 | 11644 ft | 353 kts | 177° |
| 2026-05-07 15:22 | 37.23652 | -6.05910 | 12412 ft | 357 kts | 178° |
| 2026-05-07 15:22 | 37.21153 | -6.05715 | 13215 ft | 362 kts | 178° |
| 2026-05-07 15:23 | 37.18624 | -6.05519 | 13940 ft | 368 kts | 179° |
| 2026-05-07 15:23 | 37.16061 | -6.05552 | 14631 ft | 369 kts | 193° |
| 2026-05-07 15:23 | 37.13741 | -6.06655 | 15374 ft | 366 kts | 212° |
| 2026-05-07 15:23 | 37.11684 | -6.08528 | 16130 ft | 367 kts | 223° |
| 2026-05-07 15:24 | 37.09747 | -6.10613 | 16956 ft | 367 kts | 224° |
| 2026-05-07 15:24 | 37.07820 | -6.12714 | 17792 ft | 369 kts | 224° |
| 2026-05-07 15:24 | 37.05865 | -6.14799 | 18562 ft | 369 kts | 224° |
| 2026-05-07 15:24 | 37.03885 | -6.16871 | 19217 ft | 373 kts | 224° |
| 2026-05-07 15:25 | 37.01878 | -6.18948 | 19821 ft | 377 kts | 223° |
| 2026-05-07 15:25 | 37.00540 | -6.20347 | 20225 ft | 379 kts | 224° |
| 2026-05-07 15:25 | 36.98523 | -6.22488 | 20853 ft | 382 kts | 224° |
| 2026-05-07 15:25 | 36.96497 | -6.24651 | 21473 ft | 385 kts | 224° |
| 2026-05-07 15:26 | 36.94452 | -6.26835 | 22052 ft | 388 kts | 224° |
| 2026-05-07 15:26 | 36.92392 | -6.29029 | 22622 ft | 391 kts | 224° |
| 2026-05-07 15:26 | 36.90307 | -6.31245 | 23182 ft | 395 kts | 224° |
| 2026-05-07 15:26 | 36.88205 | -6.33473 | 23699 ft | 398 kts | 224° |
| 2026-05-07 15:27 | 36.86088 | -6.35715 | 24179 ft | 400 kts | 224° |
| 2026-05-07 15:27 | 36.83960 | -6.37964 | 24673 ft | 402 kts | 224° |
| 2026-05-07 15:27 | 36.81821 | -6.40223 | 25139 ft | 404 kts | 224° |
| 2026-05-07 15:27 | 36.79672 | -6.42491 | 25622 ft | 405 kts | 225° |
| 2026-05-07 15:28 | 36.77515 | -6.44767 | 26070 ft | 408 kts | 225° |
| 2026-05-07 15:28 | 36.75343 | -6.47056 | 26491 ft | 410 kts | 224° |
| 2026-05-07 15:28 | 36.73160 | -6.49355 | 26950 ft | 411 kts | 224° |
| 2026-05-07 15:28 | 36.70971 | -6.51658 | 27376 ft | 413 kts | 224° |
| 2026-05-07 15:29 | 36.68765 | -6.53978 | 27774 ft | 416 kts | 224° |
| 2026-05-07 15:29 | 36.66549 | -6.56307 | 28160 ft | 418 kts | 225° |
| 2026-05-07 15:29 | 36.64318 | -6.58649 | 28579 ft | 420 kts | 225° |
| 2026-05-07 15:29 | 36.62088 | -6.60987 | 29103 ft | 419 kts | 225° |
| 2026-05-07 15:30 | 36.59869 | -6.63311 | 29743 ft | 415 kts | 225° |
| 2026-05-07 15:30 | 36.57670 | -6.65613 | 30327 ft | 411 kts | 225° |
| 2026-05-07 15:30 | 36.55491 | -6.67895 | 30808 ft | 409 kts | 225° |
| 2026-05-07 15:30 | 36.53319 | -6.70168 | 31289 ft | 407 kts | 225° |
| 2026-05-07 15:31 | 36.51161 | -6.72422 | 31762 ft | 405 kts | 225° |
| 2026-05-07 15:31 | 36.49003 | -6.74667 | 32221 ft | 403 kts | 225° |
| 2026-05-07 15:31 | 36.46850 | -6.76887 | 32690 ft | 401 kts | 225° |
| 2026-05-07 15:31 | 36.44706 | -6.79091 | 33159 ft | 399 kts | 225° |
| 2026-05-07 15:32 | 36.42569 | -6.81285 | 33611 ft | 398 kts | 226° |
| 2026-05-07 15:32 | 36.40444 | -6.83469 | 34041 ft | 396 kts | 226° |
| 2026-05-07 15:32 | 36.38330 | -6.85639 | 34453 ft | 393 kts | 226° |
| 2026-05-07 15:32 | 36.36228 | -6.87797 | 34849 ft | 391 kts | 226° |
| 2026-05-07 15:33 | 36.32017 | -6.92127 | 34933 ft | 398 kts | 226° |
| 2026-05-07 15:33 | 36.27771 | -6.96478 | 34927 ft | 392 kts | 226° |
| 2026-05-07 15:34 | 36.23586 | -7.00759 | 34942 ft | 390 kts | 226° |
| 2026-05-07 15:34 | 36.19397 | -7.05044 | 34944 ft | 391 kts | 226° |
| 2026-05-07 15:35 | 36.15207 | -7.09323 | 34941 ft | 392 kts | 226° |
| 2026-05-07 15:35 | 36.10999 | -7.13612 | 34943 ft | 393 kts | 226° |
| 2026-05-07 15:36 | 36.06778 | -7.17909 | 34943 ft | 393 kts | 225° |
| 2026-05-07 15:36 | 36.02551 | -7.22205 | 34919 ft | 393 kts | 225° |
| 2026-05-07 15:37 | 35.98331 | -7.26488 | 34936 ft | 393 kts | 225° |
| 2026-05-07 15:37 | 35.94109 | -7.30768 | 34948 ft | 392 kts | 225° |
| 2026-05-07 15:38 | 35.89890 | -7.35038 | 34950 ft | 392 kts | 225° |
| 2026-05-07 15:38 | 35.86417 | -7.38550 | 34952 ft | 392 kts | 225° |
| 2026-05-07 15:39 | 35.82196 | -7.42807 | 34948 ft | 392 kts | 225° |
| 2026-05-07 15:39 | 35.77972 | -7.47024 | 34947 ft | 392 kts | 225° |
| 2026-05-07 15:40 | 35.73736 | -7.51241 | 34950 ft | 391 kts | 225° |
| 2026-05-07 15:40 | 35.69508 | -7.55449 | 34955 ft | 391 kts | 225° |
| 2026-05-07 15:41 | 35.65281 | -7.59652 | 34957 ft | 391 kts | 225° |
| 2026-05-07 15:41 | 35.61053 | -7.63852 | 34953 ft | 391 kts | 224° |
| 2026-05-07 15:42 | 35.56829 | -7.68041 | 34953 ft | 390 kts | 224° |
| 2026-05-07 15:42 | 35.52608 | -7.72223 | 34952 ft | 390 kts | 224° |
| 2026-05-07 15:43 | 35.48422 | -7.76364 | 34949 ft | 389 kts | 224° |
| 2026-05-07 15:43 | 35.44209 | -7.80527 | 34949 ft | 389 kts | 224° |
| 2026-05-07 15:44 | 35.39999 | -7.84687 | 34957 ft | 389 kts | 224° |
| 2026-05-07 15:44 | 35.35808 | -7.88872 | 34956 ft | 389 kts | 224° |
| 2026-05-07 15:45 | 35.31615 | -7.93067 | 34956 ft | 389 kts | 224° |
| 2026-05-07 15:45 | 35.27417 | -7.97257 | 34959 ft | 390 kts | 224° |
| 2026-05-07 15:46 | 35.21111 | -8.03537 | 34952 ft | 390 kts | 224° |
| 2026-05-07 15:47 | 35.16897 | -8.07726 | 34961 ft | 391 kts | 224° |
| 2026-05-07 15:47 | 35.12667 | -8.11924 | 34960 ft | 392 kts | 224° |
| 2026-05-07 15:48 | 35.08426 | -8.16129 | 34959 ft | 393 kts | 224° |
| 2026-05-07 15:48 | 35.04173 | -8.20337 | 34963 ft | 394 kts | 224° |
| 2026-05-07 15:49 | 34.99909 | -8.24551 | 34959 ft | 394 kts | 224° |
| 2026-05-07 15:49 | 34.95645 | -8.28760 | 34945 ft | 395 kts | 224° |
| 2026-05-07 15:50 | 34.91377 | -8.32966 | 34966 ft | 394 kts | 224° |
| 2026-05-07 15:50 | 34.87109 | -8.37167 | 34963 ft | 394 kts | 224° |
| 2026-05-07 15:51 | 34.82848 | -8.41356 | 34970 ft | 393 kts | 224° |
| 2026-05-07 15:51 | 34.78598 | -8.45528 | 34962 ft | 392 kts | 224° |
| 2026-05-07 15:52 | 34.74354 | -8.49688 | 34966 ft | 391 kts | 224° |
| 2026-05-07 15:52 | 34.70120 | -8.53832 | 34964 ft | 390 kts | 224° |
| 2026-05-07 15:53 | 34.65896 | -8.57963 | 34957 ft | 390 kts | 224° |
| 2026-05-07 15:53 | 34.61673 | -8.62087 | 34967 ft | 390 kts | 224° |
| 2026-05-07 15:54 | 34.57445 | -8.66211 | 34971 ft | 390 kts | 224° |
| 2026-05-07 15:54 | 34.53206 | -8.70339 | 34967 ft | 391 kts | 224° |
| 2026-05-07 15:55 | 34.48958 | -8.74473 | 34971 ft | 392 kts | 223° |
| 2026-05-07 15:55 | 34.44700 | -8.78606 | 34966 ft | 392 kts | 223° |
| 2026-05-07 15:56 | 34.40437 | -8.82719 | 34954 ft | 392 kts | 223° |
| 2026-05-07 15:56 | 34.36168 | -8.86817 | 34965 ft | 391 kts | 223° |
| 2026-05-07 15:57 | 34.31910 | -8.90902 | 34965 ft | 391 kts | 223° |
| 2026-05-07 15:57 | 34.27679 | -8.94959 | 34966 ft | 390 kts | 223° |
| 2026-05-07 15:58 | 34.23427 | -8.99031 | 34967 ft | 390 kts | 223° |
| 2026-05-07 15:58 | 34.19178 | -9.03096 | 34965 ft | 390 kts | 223° |
| 2026-05-07 15:59 | 34.14929 | -9.07155 | 34965 ft | 389 kts | 223° |
| 2026-05-07 15:59 | 34.10682 | -9.11207 | 34958 ft | 389 kts | 223° |
| 2026-05-07 16:00 | 34.06438 | -9.15250 | 34964 ft | 389 kts | 223° |
| 2026-05-07 16:00 | 34.02199 | -9.19284 | 34965 ft | 388 kts | 223° |
| 2026-05-07 16:01 | 33.97955 | -9.23317 | 34964 ft | 388 kts | 223° |
| 2026-05-07 16:01 | 33.93708 | -9.27349 | 34966 ft | 389 kts | 223° |
| 2026-05-07 16:02 | 33.89460 | -9.31375 | 34966 ft | 389 kts | 223° |
| 2026-05-07 16:02 | 33.85208 | -9.35399 | 34940 ft | 389 kts | 223° |
| 2026-05-07 16:03 | 33.80953 | -9.39422 | 34952 ft | 389 kts | 223° |
| 2026-05-07 16:03 | 33.76693 | -9.43445 | 34965 ft | 390 kts | 223° |
| 2026-05-07 16:04 | 33.72421 | -9.47473 | 34975 ft | 390 kts | 223° |
| 2026-05-07 16:04 | 33.68148 | -9.51497 | 34957 ft | 391 kts | 223° |
| 2026-05-07 16:05 | 33.63896 | -9.55495 | 34965 ft | 390 kts | 223° |
| 2026-05-07 16:05 | 33.59621 | -9.59510 | 34965 ft | 390 kts | 223° |
| 2026-05-07 16:06 | 33.55353 | -9.63513 | 34952 ft | 389 kts | 222° |
| 2026-05-07 16:06 | 33.51088 | -9.67509 | 34962 ft | 389 kts | 222° |
| 2026-05-07 16:07 | 33.46829 | -9.71494 | 34963 ft | 388 kts | 222° |
| 2026-05-07 16:07 | 33.42571 | -9.75473 | 34967 ft | 388 kts | 222° |
| 2026-05-07 16:08 | 33.38315 | -9.79445 | 34965 ft | 388 kts | 222° |
| 2026-05-07 16:08 | 33.34056 | -9.83415 | 34966 ft | 388 kts | 222° |
| 2026-05-07 16:09 | 33.29800 | -9.87376 | 34965 ft | 388 kts | 222° |
| 2026-05-07 16:09 | 33.25540 | -9.91337 | 34957 ft | 388 kts | 222° |
| 2026-05-07 16:10 | 33.21278 | -9.95295 | 34965 ft | 388 kts | 222° |
| 2026-05-07 16:10 | 33.17010 | -9.99254 | 34967 ft | 389 kts | 222° |
| 2026-05-07 16:11 | 33.13459 | -10.02544 | 34968 ft | 389 kts | 222° |
| 2026-05-07 16:11 | 33.08454 | -10.07175 | 34967 ft | 390 kts | 222° |
| 2026-05-07 16:12 | 33.04888 | -10.10471 | 34965 ft | 390 kts | 222° |
| 2026-05-07 16:12 | 33.00595 | -10.14431 | 34967 ft | 390 kts | 222° |
| 2026-05-07 16:13 | 32.96301 | -10.18385 | 34967 ft | 390 kts | 222° |
| 2026-05-07 16:13 | 32.92002 | -10.22338 | 34974 ft | 390 kts | 222° |
| 2026-05-07 16:14 | 32.87718 | -10.26275 | 34965 ft | 389 kts | 222° |
| 2026-05-07 16:14 | 32.83430 | -10.30211 | 34969 ft | 388 kts | 222° |
| 2026-05-07 16:15 | 32.79160 | -10.34125 | 34969 ft | 387 kts | 222° |
| 2026-05-07 16:15 | 32.74902 | -10.38024 | 34969 ft | 386 kts | 222° |
| 2026-05-07 16:16 | 32.70646 | -10.41916 | 34953 ft | 386 kts | 222° |
| 2026-05-07 16:16 | 32.66397 | -10.45798 | 34969 ft | 386 kts | 222° |
| 2026-05-07 16:17 | 32.62136 | -10.49686 | 34973 ft | 387 kts | 222° |
| 2026-05-07 16:17 | 32.57855 | -10.53586 | 34974 ft | 389 kts | 222° |
| 2026-05-07 16:18 | 32.53561 | -10.57495 | 34977 ft | 390 kts | 221° |
| 2026-05-07 16:18 | 32.49261 | -10.61403 | 34971 ft | 390 kts | 221° |
| 2026-05-07 16:19 | 32.44954 | -10.65312 | 34969 ft | 390 kts | 221° |
| 2026-05-07 16:19 | 32.40654 | -10.69209 | 34967 ft | 389 kts | 221° |
| 2026-05-07 16:20 | 32.36362 | -10.73096 | 34966 ft | 388 kts | 221° |
| 2026-05-07 16:20 | 32.32099 | -10.76952 | 34971 ft | 388 kts | 221° |
| 2026-05-07 16:21 | 32.27810 | -10.80826 | 34969 ft | 388 kts | 221° |
| 2026-05-07 16:21 | 32.23523 | -10.84695 | 34969 ft | 388 kts | 221° |
| 2026-05-07 16:22 | 32.19236 | -10.88557 | 34972 ft | 388 kts | 221° |
| 2026-05-07 16:22 | 32.14942 | -10.92422 | 34973 ft | 388 kts | 221° |
| 2026-05-07 16:23 | 32.10652 | -10.96279 | 34971 ft | 388 kts | 221° |
| 2026-05-07 16:23 | 32.06357 | -11.00136 | 34976 ft | 388 kts | 221° |
| 2026-05-07 16:24 | 32.02061 | -11.03989 | 34976 ft | 388 kts | 221° |
| 2026-05-07 16:24 | 31.97755 | -11.07846 | 34976 ft | 389 kts | 221° |
| 2026-05-07 16:25 | 31.93449 | -11.11698 | 34971 ft | 389 kts | 221° |
| 2026-05-07 16:25 | 31.89138 | -11.15551 | 34972 ft | 389 kts | 221° |
| 2026-05-07 16:26 | 31.84825 | -11.19400 | 34958 ft | 389 kts | 222° |
| 2026-05-07 16:26 | 31.80510 | -11.23248 | 34973 ft | 389 kts | 222° |
| 2026-05-07 16:27 | 31.76488 | -11.26830 | 34976 ft | 389 kts | 222° |
| 2026-05-07 16:27 | 31.72964 | -11.29967 | 34976 ft | 389 kts | 222° |
| 2026-05-07 16:28 | 31.68644 | -11.33815 | 34972 ft | 390 kts | 221° |
| 2026-05-07 16:28 | 31.64317 | -11.37667 | 34976 ft | 390 kts | 221° |
| 2026-05-07 16:29 | 31.59990 | -11.41515 | 34978 ft | 391 kts | 221° |
| 2026-05-07 16:29 | 31.55656 | -11.45363 | 34955 ft | 391 kts | 222° |
| 2026-05-07 16:30 | 31.51315 | -11.49214 | 34970 ft | 391 kts | 222° |
| 2026-05-07 16:30 | 31.46970 | -11.53064 | 34981 ft | 392 kts | 222° |
| 2026-05-07 16:31 | 31.42620 | -11.56914 | 34978 ft | 393 kts | 222° |
| 2026-05-07 16:31 | 31.38254 | -11.60773 | 34978 ft | 393 kts | 221° |
| 2026-05-07 16:32 | 31.33911 | -11.64606 | 34979 ft | 394 kts | 221° |
| 2026-05-07 16:32 | 31.29537 | -11.68463 | 34977 ft | 394 kts | 221° |
| 2026-05-07 16:33 | 31.25162 | -11.72316 | 34951 ft | 394 kts | 222° |
| 2026-05-07 16:33 | 31.20793 | -11.76160 | 34972 ft | 393 kts | 222° |
| 2026-05-07 16:34 | 31.16425 | -11.79998 | 34980 ft | 393 kts | 222° |
| 2026-05-07 16:34 | 31.12056 | -11.83832 | 34976 ft | 393 kts | 222° |
| 2026-05-07 16:35 | 31.07689 | -11.87660 | 34979 ft | 393 kts | 222° |
| 2026-05-07 16:35 | 31.03319 | -11.91486 | 34975 ft | 393 kts | 221° |
| 2026-05-07 16:36 | 30.98949 | -11.95307 | 34984 ft | 392 kts | 221° |
| 2026-05-07 16:36 | 30.94583 | -11.99121 | 34965 ft | 392 kts | 222° |
| 2026-05-07 16:37 | 30.90216 | -12.02931 | 34979 ft | 392 kts | 222° |
| 2026-05-07 16:37 | 30.85846 | -12.06740 | 34986 ft | 393 kts | 222° |
| 2026-05-07 16:38 | 30.81501 | -12.10523 | 34984 ft | 393 kts | 222° |
| 2026-05-07 16:38 | 30.77121 | -12.14331 | 34983 ft | 393 kts | 222° |
| 2026-05-07 16:39 | 30.72739 | -12.18136 | 34984 ft | 393 kts | 222° |
| 2026-05-07 16:39 | 30.68353 | -12.21941 | 34988 ft | 394 kts | 222° |
| 2026-05-07 16:40 | 30.64064 | -12.25657 | 34981 ft | 393 kts | 222° |
| 2026-05-07 16:40 | 30.59680 | -12.29451 | 34986 ft | 393 kts | 222° |
| 2026-05-07 16:41 | 30.56012 | -12.32624 | 34987 ft | 393 kts | 222° |
| 2026-05-07 16:41 | 30.51959 | -12.36125 | 34992 ft | 392 kts | 222° |
| 2026-05-07 16:42 | 30.47574 | -12.39902 | 34989 ft | 392 kts | 221° |
| 2026-05-07 16:42 | 30.43191 | -12.43663 | 34992 ft | 392 kts | 222° |
| 2026-05-07 16:43 | 30.38809 | -12.47421 | 34992 ft | 392 kts | 222° |
| 2026-05-07 16:43 | 30.34430 | -12.51174 | 34981 ft | 391 kts | 222° |
| 2026-05-07 16:44 | 30.30067 | -12.54909 | 34988 ft | 389 kts | 222° |
| 2026-05-07 16:44 | 30.25718 | -12.58628 | 34991 ft | 388 kts | 222° |
| 2026-05-07 16:45 | 30.21383 | -12.62332 | 34991 ft | 387 kts | 222° |
| 2026-05-07 16:45 | 30.17054 | -12.66027 | 34994 ft | 386 kts | 222° |
| 2026-05-07 16:46 | 30.12735 | -12.69709 | 34995 ft | 386 kts | 222° |
| 2026-05-07 16:46 | 30.08306 | -12.73240 | 34994 ft | 390 kts | 217° |
| 2026-05-07 16:47 | 30.03531 | -12.76269 | 34997 ft | 392 kts | 215° |
| 2026-05-07 16:47 | 29.98719 | -12.79240 | 34999 ft | 392 kts | 216° |
| 2026-05-07 16:48 | 29.93932 | -12.82250 | 34992 ft | 392 kts | 216° |
| 2026-05-07 16:48 | 29.89162 | -12.85282 | 34993 ft | 391 kts | 216° |
| 2026-05-07 16:49 | 29.84398 | -12.88321 | 34994 ft | 391 kts | 216° |
| 2026-05-07 16:49 | 29.79690 | -12.91315 | 34940 ft | 378 kts | 216° |
| 2026-05-07 16:49 | 29.77404 | -12.92766 | 34674 ft | 370 kts | 216° |
| 2026-05-07 16:50 | 29.75171 | -12.94184 | 34296 ft | 365 kts | 216° |
| 2026-05-07 16:50 | 29.72974 | -12.95582 | 33982 ft | 360 kts | 216° |
| 2026-05-07 16:50 | 29.70794 | -12.96970 | 33584 ft | 356 kts | 216° |
| 2026-05-07 16:50 | 29.68635 | -12.98344 | 33156 ft | 354 kts | 216° |
| 2026-05-07 16:51 | 29.66505 | -12.99698 | 32914 ft | 347 kts | 216° |
| 2026-05-07 16:51 | 29.64399 | -13.01034 | 32545 ft | 344 kts | 216° |
| 2026-05-07 16:51 | 29.62310 | -13.02361 | 32049 ft | 344 kts | 216° |
| 2026-05-07 16:51 | 29.60248 | -13.03669 | 31823 ft | 337 kts | 216° |
| 2026-05-07 16:52 | 29.58205 | -13.04965 | 31523 ft | 333 kts | 216° |
| 2026-05-07 16:52 | 29.56181 | -13.06248 | 31175 ft | 331 kts | 215° |
| 2026-05-07 16:52 | 29.54174 | -13.07520 | 30844 ft | 328 kts | 215° |
| 2026-05-07 16:52 | 29.52183 | -13.08782 | 30514 ft | 326 kts | 215° |
| 2026-05-07 16:53 | 29.50202 | -13.10036 | 30184 ft | 324 kts | 215° |
| 2026-05-07 16:53 | 29.48235 | -13.11281 | 29817 ft | 322 kts | 215° |
| 2026-05-07 16:53 | 29.46311 | -13.12498 | 29451 ft | 319 kts | 215° |
| 2026-05-07 16:53 | 29.44380 | -13.13719 | 29105 ft | 315 kts | 215° |
| 2026-05-07 16:54 | 29.42467 | -13.14927 | 28754 ft | 313 kts | 215° |
| 2026-05-07 16:54 | 29.40564 | -13.16130 | 28422 ft | 312 kts | 215° |
| 2026-05-07 16:54 | 29.38639 | -13.17349 | 28091 ft | 322 kts | 215° |
| 2026-05-07 16:54 | 29.36638 | -13.18616 | 27741 ft | 332 kts | 215° |
| 2026-05-07 16:55 | 29.34583 | -13.19830 | 27368 ft | 332 kts | 212° |
| 2026-05-07 16:55 | 29.32509 | -13.20963 | 26995 ft | 328 kts | 211° |
| 2026-05-07 16:55 | 29.30452 | -13.22069 | 26659 ft | 325 kts | 212° |
| 2026-05-07 16:55 | 29.28419 | -13.23168 | 26309 ft | 321 kts | 212° |
| 2026-05-07 16:56 | 29.26413 | -13.24262 | 25959 ft | 318 kts | 212° |
| 2026-05-07 16:56 | 29.24427 | -13.25351 | 25613 ft | 315 kts | 212° |
| 2026-05-07 16:56 | 29.20505 | -13.27502 | 24922 ft | 311 kts | 212° |
| 2026-05-07 16:57 | 29.18550 | -13.28574 | 24542 ft | 312 kts | 212° |
| 2026-05-07 16:57 | 29.16584 | -13.29652 | 24144 ft | 315 kts | 211° |
| 2026-05-07 16:57 | 29.14603 | -13.30738 | 23731 ft | 317 kts | 211° |
| 2026-05-07 16:57 | 29.13285 | -13.31459 | 23466 ft | 317 kts | 211° |
| 2026-05-07 16:58 | 29.11295 | -13.32548 | 23014 ft | 317 kts | 211° |
| 2026-05-07 16:58 | 29.08639 | -13.34000 | 22457 ft | 316 kts | 211° |
| 2026-05-07 16:58 | 29.06661 | -13.35080 | 22060 ft | 314 kts | 211° |
| 2026-05-07 16:58 | 29.04701 | -13.36150 | 21660 ft | 311 kts | 211° |
| 2026-05-07 16:59 | 29.02756 | -13.37211 | 21272 ft | 309 kts | 211° |
| 2026-05-07 16:59 | 29.01476 | -13.37910 | 21017 ft | 307 kts | 211° |
| 2026-05-07 16:59 | 28.99554 | -13.38958 | 20637 ft | 305 kts | 211° |
| 2026-05-07 16:59 | 28.97645 | -13.40000 | 20260 ft | 303 kts | 211° |
| 2026-05-07 17:00 | 28.95751 | -13.41033 | 19896 ft | 301 kts | 211° |
| 2026-05-07 17:00 | 28.93866 | -13.42061 | 19513 ft | 299 kts | 211° |
| 2026-05-07 17:00 | 28.91992 | -13.43082 | 19146 ft | 298 kts | 210° |
| 2026-05-07 17:00 | 28.90126 | -13.44099 | 18769 ft | 297 kts | 210° |
| 2026-05-07 17:01 | 28.88266 | -13.45113 | 18400 ft | 296 kts | 210° |
| 2026-05-07 17:01 | 28.86408 | -13.46125 | 17985 ft | 295 kts | 210° |
| 2026-05-07 17:01 | 28.84557 | -13.47132 | 17578 ft | 294 kts | 210° |
| 2026-05-07 17:01 | 28.82722 | -13.48130 | 17231 ft | 292 kts | 210° |
| 2026-05-07 17:02 | 28.80893 | -13.49124 | 16864 ft | 290 kts | 210° |
| 2026-05-07 17:02 | 28.79079 | -13.50110 | 16497 ft | 288 kts | 210° |
| 2026-05-07 17:02 | 28.77279 | -13.51088 | 16146 ft | 286 kts | 210° |
| 2026-05-07 17:02 | 28.75489 | -13.52060 | 15791 ft | 284 kts | 210° |
| 2026-05-07 17:03 | 28.73706 | -13.53028 | 15442 ft | 283 kts | 209° |
| 2026-05-07 17:03 | 28.71933 | -13.53991 | 15091 ft | 282 kts | 209° |
| 2026-05-07 17:03 | 28.70167 | -13.54949 | 14744 ft | 281 kts | 209° |
| 2026-05-07 17:03 | 28.68408 | -13.55903 | 14398 ft | 280 kts | 209° |
| 2026-05-07 17:04 | 28.66652 | -13.56855 | 14041 ft | 279 kts | 209° |
| 2026-05-07 17:04 | 28.64898 | -13.57806 | 13682 ft | 279 kts | 209° |
| 2026-05-07 17:04 | 28.63151 | -13.58753 | 13299 ft | 278 kts | 209° |
| 2026-05-07 17:04 | 28.61408 | -13.59696 | 12920 ft | 277 kts | 209° |
| 2026-05-07 17:05 | 28.59675 | -13.60635 | 12578 ft | 275 kts | 209° |
| 2026-05-07 17:05 | 28.57953 | -13.61567 | 12231 ft | 274 kts | 209° |
| 2026-05-07 17:05 | 28.56236 | -13.62495 | 11884 ft | 273 kts | 209° |
| 2026-05-07 17:05 | 28.54523 | -13.63421 | 11540 ft | 272 kts | 208° |
| 2026-05-07 17:06 | 28.52818 | -13.64335 | 11206 ft | 271 kts | 207° |
| 2026-05-07 17:06 | 28.51084 | -13.65192 | 10870 ft | 271 kts | 206° |
| 2026-05-07 17:06 | 28.49347 | -13.66032 | 10532 ft | 271 kts | 206° |
| 2026-05-07 17:06 | 28.47609 | -13.66875 | 10195 ft | 271 kts | 206° |
| 2026-05-07 17:07 | 28.45828 | -13.67592 | 9838 ft | 276 kts | 192° |
| 2026-05-07 17:07 | 28.43897 | -13.67554 | 9503 ft | 280 kts | 176° |
| 2026-05-07 17:07 | 28.41964 | -13.67232 | 9124 ft | 281 kts | 175° |
| 2026-05-07 17:07 | 28.40034 | -13.66904 | 8764 ft | 281 kts | 175° |
| 2026-05-07 17:08 | 28.38127 | -13.66590 | 8407 ft | 280 kts | 176° |
| 2026-05-07 17:08 | 28.36172 | -13.66265 | 8052 ft | 281 kts | 173° |
| 2026-05-07 17:08 | 28.34385 | -13.65463 | 7947 ft | 277 kts | 153° |
| 2026-05-07 17:08 | 28.32738 | -13.64387 | 7913 ft | 269 kts | 154° |
| 2026-05-07 17:09 | 28.31116 | -13.63352 | 7909 ft | 266 kts | 154° |
| 2026-05-07 17:09 | 28.29496 | -13.62334 | 7912 ft | 267 kts | 154° |
| 2026-05-07 17:09 | 28.27860 | -13.61317 | 7917 ft | 271 kts | 155° |
| 2026-05-07 17:09 | 28.26200 | -13.60287 | 7914 ft | 273 kts | 155° |
| 2026-05-07 17:10 | 28.24521 | -13.59305 | 7902 ft | 269 kts | 164° |
| 2026-05-07 17:10 | 28.22735 | -13.59066 | 7907 ft | 254 kts | 188° |
| 2026-05-07 17:10 | 28.21002 | -13.59277 | 7900 ft | 248 kts | 192° |
| 2026-05-07 17:10 | 28.19304 | -13.59550 | 7897 ft | 245 kts | 192° |
| 2026-05-07 17:11 | 28.17618 | -13.59816 | 7895 ft | 244 kts | 192° |
| 2026-05-07 17:11 | 28.15924 | -13.60073 | 7903 ft | 248 kts | 192° |
| 2026-05-07 17:11 | 28.14197 | -13.60329 | 7904 ft | 252 kts | 192° |
| 2026-05-07 17:11 | 28.12464 | -13.60580 | 7904 ft | 250 kts | 192° |
| 2026-05-07 17:12 | 28.10774 | -13.60959 | 7877 ft | 244 kts | 209° |
| 2026-05-07 17:12 | 28.09440 | -13.62055 | 7899 ft | 236 kts | 225° |
| 2026-05-07 17:12 | 28.08219 | -13.63295 | 7899 ft | 236 kts | 226° |
| 2026-05-07 17:12 | 28.06997 | -13.64537 | 7895 ft | 236 kts | 226° |
| 2026-05-07 17:13 | 28.05775 | -13.65776 | 7896 ft | 237 kts | 225° |
| 2026-05-07 17:13 | 28.04547 | -13.67016 | 7900 ft | 237 kts | 225° |
| 2026-05-07 17:13 | 28.03312 | -13.68260 | 7898 ft | 238 kts | 225° |
| 2026-05-07 17:13 | 28.02074 | -13.69507 | 7902 ft | 239 kts | 225° |
| 2026-05-07 17:14 | 28.00910 | -13.70824 | 7861 ft | 237 kts | 240° |
| 2026-05-07 17:14 | 28.00326 | -13.72547 | 7780 ft | 236 kts | 258° |
| 2026-05-07 17:14 | 27.99931 | -13.74374 | 7590 ft | 240 kts | 258° |
| 2026-05-07 17:14 | 27.99541 | -13.76198 | 7390 ft | 236 kts | 258° |
| 2026-05-07 17:15 | 27.99155 | -13.77987 | 7193 ft | 232 kts | 259° |
| 2026-05-07 17:15 | 27.98773 | -13.79746 | 6998 ft | 228 kts | 259° |
| 2026-05-07 17:15 | 27.98402 | -13.81481 | 6821 ft | 226 kts | 262° |
| 2026-05-07 17:15 | 27.98508 | -13.83218 | 6629 ft | 222 kts | 292° |
| 2026-05-07 17:16 | 27.99361 | -13.84651 | 6459 ft | 222 kts | 317° |
| 2026-05-07 17:16 | 28.00688 | -13.85530 | 6275 ft | 225 kts | 340° |
| 2026-05-07 17:16 | 28.02253 | -13.85777 | 6062 ft | 228 kts | 353° |
| 2026-05-07 17:16 | 28.03835 | -13.85850 | 5874 ft | 228 kts | 354° |
| 2026-05-07 17:17 | 28.05421 | -13.85912 | 5677 ft | 228 kts | 354° |
| 2026-05-07 17:17 | 28.07005 | -13.85974 | 5484 ft | 227 kts | 355° |
| 2026-05-07 17:17 | 28.08582 | -13.86038 | 5294 ft | 226 kts | 355° |
| 2026-05-07 17:17 | 28.10154 | -13.86104 | 5101 ft | 225 kts | 355° |
| 2026-05-07 17:18 | 28.11706 | -13.86171 | 4913 ft | 222 kts | 355° |
| 2026-05-07 17:18 | 28.13243 | -13.86239 | 4727 ft | 219 kts | 354° |
| 2026-05-07 17:18 | 28.14759 | -13.86306 | 4538 ft | 217 kts | 354° |
| 2026-05-07 17:18 | 28.16261 | -13.86374 | 4350 ft | 215 kts | 355° |
| 2026-05-07 17:19 | 28.17749 | -13.86442 | 4180 ft | 213 kts | 354° |
| 2026-05-07 17:19 | 28.19222 | -13.86509 | 4000 ft | 211 kts | 355° |
| 2026-05-07 17:19 | 28.20686 | -13.86576 | 3825 ft | 210 kts | 355° |
| 2026-05-07 17:19 | 28.22138 | -13.86643 | 3648 ft | 208 kts | 355° |
| 2026-05-07 17:20 | 28.23571 | -13.86708 | 3475 ft | 204 kts | 355° |
| 2026-05-07 17:20 | 28.24977 | -13.86802 | 3299 ft | 200 kts | 353° |
| 2026-05-07 17:20 | 28.26359 | -13.86925 | 3152 ft | 197 kts | 356° |
| 2026-05-07 17:20 | 28.27704 | -13.86945 | 2993 ft | 190 kts | 358° |
| 2026-05-07 17:21 | 28.28996 | -13.86915 | 2813 ft | 182 kts | 359° |
| 2026-05-07 17:21 | 28.30241 | -13.86876 | 2695 ft | 175 kts | 0° |
| 2026-05-07 17:21 | 28.31448 | -13.86835 | 2528 ft | 172 kts | 359° |
| 2026-05-07 17:21 | 28.32611 | -13.86795 | 2312 ft | 162 kts | 359° |
| 2026-05-07 17:22 | 28.33702 | -13.86760 | 2108 ft | 152 kts | 0° |
| 2026-05-07 17:22 | 28.34737 | -13.86725 | 1890 ft | 145 kts | 0° |
| 2026-05-07 17:22 | 28.35706 | -13.86693 | 1708 ft | 137 kts | 360° |
| 2026-05-07 17:22 | 28.36655 | -13.86662 | 1564 ft | 135 kts | 359° |
| 2026-05-07 17:23 | 28.37597 | -13.86629 | 1360 ft | 135 kts | 360° |
| 2026-05-07 17:23 | 28.38533 | -13.86631 | 1170 ft | 135 kts | 3° |
| 2026-05-07 17:23 | 28.39457 | -13.86574 | 989 ft | 136 kts | 5° |
| 2026-05-07 17:23 | 28.40453 | -13.86536 | 819 ft | 150 kts | 5° |
| 2026-05-07 17:24 | 28.41493 | -13.86502 | 620 ft | 148 kts | 6° |
| 2026-05-07 17:24 | 28.42461 | -13.86469 | 420 ft | 141 kts | 4° |
| 2026-05-07 17:24 | 28.43439 | -13.86446 | 217 ft | 136 kts | 7° |
| 2026-05-07 17:24 | 28.44362 | -13.86410 | 70 ft | 129 kts | 4° |
| 2026-05-07 17:25 | 28.45112 | -13.86380 | 82 ft | 79 kts | 2° |
| 2026-05-07 17:25 | 28.45450 | -13.86369 | 84 ft | 27 kts | 1° |
| 2026-05-07 17:25 | 28.45617 | -13.86365 | 87 ft | 12 kts | 359° |
| 2026-05-07 17:25 | 28.45661 | -13.86433 | 88 ft | 14 kts | 270° |
| 2026-05-07 17:26 | 28.45660 | -13.86529 | 89 ft | 10 kts | 264° |
| 2026-05-07 17:26 | 28.45654 | -13.86632 | 93 ft | 13 kts | 272° |
| 2026-05-07 17:26 | 28.45655 | -13.86651 | 89 ft | 0 kts | 274° |